createdAt,value
2022-11-07T00:00:21.137Z,50.866760
2022-11-07T00:01:21.252Z,50.866909
2022-11-07T00:02:21.186Z,50.866783
2022-11-07T00:03:21.141Z,50.866741
2022-11-07T00:04:21.095Z,50.866791
2022-11-07T00:05:21.084Z,50.866924
2022-11-07T00:06:21.070Z,50.866943
2022-11-07T00:07:21.068Z,50.866867
2022-11-07T00:08:21.055Z,50.866825
2022-11-07T00:09:21.047Z,50.866882
2022-11-07T00:10:21.040Z,50.866821
2022-11-07T00:11:21.036Z,50.866882
2022-11-07T00:12:21.019Z,50.866859
2022-11-07T00:13:21.654Z,50.866875
2022-11-07T00:14:21.008Z,50.866974
2022-11-07T00:15:21.007Z,50.867035
2022-11-07T00:16:21.002Z,50.867054
2022-11-07T00:17:21.016Z,50.867111
2022-11-07T00:18:20.977Z,50.867176
2022-11-07T00:19:20.968Z,50.867085
2022-11-07T00:20:20.959Z,50.866795
2022-11-07T00:21:20.956Z,50.866650
2022-11-07T00:22:20.947Z,50.866711
2022-11-07T00:23:20.928Z,50.866791
2022-11-07T00:24:20.923Z,50.866707
2022-11-07T00:25:20.918Z,50.866676
2022-11-07T00:26:20.907Z,50.866642
2022-11-07T00:27:20.958Z,50.866699
2022-11-07T00:34:22.117Z,50.866688
2022-11-07T00:35:22.100Z,50.866680
2022-11-07T00:36:22.091Z,50.866631
2022-11-07T00:37:22.105Z,50.866646
2022-11-07T00:38:22.078Z,50.866627
2022-11-07T00:39:22.986Z,50.866753
2022-11-07T00:40:22.058Z,50.866737
2022-11-07T00:41:22.058Z,50.866779
2022-11-07T00:42:22.046Z,50.866745
2022-11-07T00:43:22.044Z,50.866741
2022-11-07T00:44:22.033Z,50.866711
2022-11-07T00:45:22.027Z,50.866714
2022-11-07T00:46:22.030Z,50.866714
2022-11-07T00:47:22.028Z,50.866833
2022-11-07T00:48:22.016Z,50.866745
2022-11-07T00:49:21.987Z,50.866730
2022-11-07T00:50:22.989Z,50.866741
2022-11-07T00:51:21.980Z,50.866726
2022-11-07T00:52:21.971Z,50.866772
2022-11-07T00:53:21.980Z,50.866772
2022-11-07T00:54:21.958Z,50.866749
2022-11-07T00:55:21.967Z,50.866730
2022-11-07T00:56:21.944Z,50.866707
2022-11-07T00:57:21.928Z,50.866688
2022-11-07T00:58:21.921Z,50.866699
2022-11-07T00:59:21.913Z,50.866692
2022-11-07T01:00:21.899Z,50.866699
2022-11-07T01:01:21.987Z,50.866722
2022-11-07T01:02:21.985Z,50.866676
2022-11-07T01:03:21.880Z,50.866695
2022-11-07T01:04:21.870Z,50.866703
2022-11-07T01:05:21.861Z,50.866661
2022-11-07T01:06:21.858Z,50.866692
2022-11-07T01:07:21.852Z,50.866741
2022-11-07T01:08:21.833Z,50.866726
2022-11-07T01:09:21.829Z,50.866714
2022-11-07T01:10:21.828Z,50.866650
2022-11-07T01:11:21.828Z,50.866714
2022-11-07T01:12:21.814Z,50.866711
2022-11-07T01:13:21.802Z,50.866699
2022-11-07T01:14:21.804Z,50.866669
2022-11-07T01:15:21.790Z,50.866650
2022-11-07T01:16:21.781Z,50.866642
2022-11-07T01:17:21.777Z,50.866611
2022-11-07T01:18:21.751Z,50.866817
2022-11-07T01:19:22.754Z,50.866806
2022-11-07T01:20:21.739Z,50.866726
2022-11-07T01:21:21.731Z,50.866741
2022-11-07T01:22:22.503Z,50.866558
2022-11-07T01:23:21.712Z,50.866871
2022-11-07T01:24:21.715Z,50.866814
2022-11-07T01:25:21.706Z,50.866730
2022-11-07T01:26:21.831Z,50.866695
2022-11-07T01:27:21.687Z,50.866665
2022-11-07T01:28:21.674Z,50.866795
2022-11-07T01:29:21.668Z,50.866917
2022-11-07T01:30:21.672Z,50.866772
2022-11-07T01:31:21.656Z,50.866695
2022-11-07T01:32:21.660Z,50.866890
2022-11-07T01:33:21.637Z,50.866955
2022-11-07T01:34:21.635Z,50.866886
2022-11-07T01:35:21.625Z,50.866627
2022-11-07T01:36:21.643Z,50.866631
2022-11-07T01:37:21.607Z,50.866829
2022-11-07T01:38:21.606Z,50.866894
2022-11-07T01:39:21.601Z,50.866821
2022-11-07T01:40:21.585Z,50.866829
2022-11-07T01:41:22.529Z,50.866978
2022-11-07T01:42:21.571Z,50.866894
2022-11-07T01:43:21.561Z,50.866890
2022-11-07T01:44:21.555Z,50.866810
2022-11-07T01:45:21.541Z,50.866821
2022-11-07T01:46:21.541Z,50.866783
2022-11-07T01:47:21.534Z,50.866745
2022-11-07T01:48:21.517Z,50.866749
2022-11-07T01:49:21.518Z,50.866703
2022-11-07T01:50:24.676Z,50.866711
2022-11-07T01:51:22.505Z,50.866783
2022-11-07T01:52:21.494Z,50.866798
2022-11-07T01:53:21.481Z,50.866859
2022-11-07T01:54:21.473Z,50.866852
2022-11-07T01:55:21.470Z,50.866825
2022-11-07T01:56:21.464Z,50.866833
2022-11-07T01:57:21.448Z,50.866795
2022-11-07T01:58:21.462Z,50.866795
2022-11-07T01:59:21.441Z,50.866783
2022-11-07T02:00:21.422Z,50.866806
2022-11-07T02:01:21.498Z,50.866837
2022-11-07T02:02:21.512Z,50.866756
2022-11-07T02:03:21.435Z,50.866791
2022-11-07T02:04:21.388Z,50.866772
2022-11-07T02:05:21.392Z,50.866798
2022-11-07T02:06:21.375Z,50.866795
2022-11-07T02:07:21.930Z,50.866814
2022-11-07T02:08:21.372Z,50.866798
2022-11-07T02:09:21.351Z,50.866749
2022-11-07T02:10:21.343Z,50.866760
2022-11-07T02:11:21.336Z,50.866806
2022-11-07T02:12:21.333Z,50.866779
2022-11-07T02:13:21.326Z,50.866852
2022-11-07T02:14:21.399Z,50.866840
2022-11-07T02:15:21.303Z,50.866905
2022-11-07T02:16:21.307Z,50.866837
2022-11-07T02:17:21.291Z,50.866829
2022-11-07T02:18:21.314Z,50.866764
2022-11-07T02:19:21.272Z,50.866821
2022-11-07T02:20:21.271Z,50.866814
2022-11-07T02:21:21.255Z,50.866890
2022-11-07T02:22:21.251Z,50.866814
2022-11-07T02:23:21.243Z,50.866802
2022-11-07T02:24:21.231Z,50.866859
2022-11-07T02:25:21.224Z,50.866825
2022-11-07T02:26:21.218Z,50.866810
2022-11-07T02:27:21.206Z,50.866863
2022-11-07T02:28:21.207Z,50.866879
2022-11-07T02:29:21.188Z,50.866882
2022-11-07T02:30:21.183Z,50.866833
2022-11-07T02:31:21.174Z,50.866848
2022-11-07T02:32:21.184Z,50.866772
2022-11-07T02:33:21.157Z,50.866833
2022-11-07T02:34:21.156Z,50.866810
2022-11-07T02:35:21.143Z,50.866756
2022-11-07T02:36:21.146Z,50.866776
2022-11-07T02:37:21.147Z,50.866837
2022-11-07T02:38:21.123Z,50.866829
2022-11-07T02:39:21.113Z,50.866947
2022-11-07T02:40:21.128Z,50.866909
2022-11-07T02:41:21.104Z,50.866806
2022-11-07T02:42:21.091Z,50.866932
2022-11-07T02:43:21.100Z,50.866798
2022-11-07T02:44:21.078Z,50.866783
2022-11-07T02:45:21.076Z,50.866928
2022-11-07T02:46:21.944Z,50.866814
2022-11-07T02:47:21.046Z,50.866787
2022-11-07T02:48:21.056Z,50.866772
2022-11-07T02:49:21.033Z,50.866833
2022-11-07T02:50:21.017Z,50.866997
2022-11-07T02:51:22.033Z,50.866962
2022-11-07T02:52:21.025Z,50.866756
2022-11-07T02:53:21.008Z,50.866848
2022-11-07T02:54:21.010Z,50.866955
2022-11-07T02:55:20.987Z,50.866753
2022-11-07T02:56:20.997Z,50.866875
2022-11-07T02:57:20.980Z,50.866768
2022-11-07T02:58:20.973Z,50.866623
2022-11-07T02:59:25.846Z,50.866688
2022-11-07T03:00:22.971Z,50.866608
2022-11-07T03:01:21.281Z,50.866692
2022-11-07T03:02:21.229Z,50.866749
2022-11-07T03:03:20.930Z,50.866856
2022-11-07T03:04:20.914Z,50.866871
2022-11-07T03:05:20.924Z,50.866928
2022-11-07T03:06:20.901Z,50.867073
2022-11-07T03:07:20.894Z,50.867134
2022-11-07T03:08:20.898Z,50.867226
2022-11-07T03:09:20.924Z,50.867218
2022-11-07T03:10:20.865Z,50.867146
2022-11-07T03:11:21.530Z,50.867058
2022-11-07T03:12:20.850Z,50.866882
2022-11-07T03:13:20.848Z,50.866734
2022-11-07T03:14:20.878Z,50.866756
2022-11-07T03:15:20.831Z,50.866810
2022-11-07T03:16:20.825Z,50.866653
2022-11-07T03:17:20.821Z,50.866737
2022-11-07T03:18:21.819Z,50.866783
2022-11-07T03:19:20.800Z,50.866783
2022-11-07T03:20:20.811Z,50.866791
2022-11-07T03:21:20.781Z,50.866814
2022-11-07T03:22:20.768Z,50.866802
2022-11-07T03:23:20.765Z,50.866825
2022-11-07T03:24:20.762Z,50.866776
2022-11-07T03:25:20.747Z,50.866676
2022-11-07T03:26:20.734Z,50.866768
2022-11-07T03:27:20.737Z,50.866802
2022-11-07T03:28:20.721Z,50.866783
2022-11-07T03:29:20.703Z,50.866779
2022-11-07T03:30:22.451Z,50.866753
2022-11-07T03:31:20.712Z,50.866753
2022-11-07T03:32:20.697Z,50.866722
2022-11-07T03:33:20.683Z,50.866741
2022-11-07T03:34:20.671Z,50.866730
2022-11-07T03:35:20.664Z,50.866730
2022-11-07T03:36:20.658Z,50.866756
2022-11-07T03:37:20.647Z,50.866722
2022-11-07T03:38:20.640Z,50.866726
2022-11-07T03:39:25.493Z,50.866737
2022-11-07T03:40:22.620Z,50.866714
2022-11-07T03:41:20.627Z,50.866745
2022-11-07T03:42:20.611Z,50.866760
2022-11-07T03:43:20.606Z,50.866634
2022-11-07T03:44:20.595Z,50.866699
2022-11-07T03:45:20.591Z,50.866768
2022-11-07T03:46:20.589Z,50.866779
2022-11-07T03:47:20.575Z,50.866688
2022-11-07T03:48:20.558Z,50.866753
2022-11-07T03:49:20.559Z,50.866817
2022-11-07T03:50:20.551Z,50.866718
2022-11-07T03:51:20.540Z,50.866760
2022-11-07T03:52:20.530Z,50.866821
2022-11-07T03:53:25.118Z,50.866749
2022-11-07T03:54:22.515Z,50.866768
2022-11-07T03:55:20.522Z,50.866779
2022-11-07T03:56:20.498Z,50.866806
2022-11-07T03:57:20.494Z,50.866753
2022-11-07T03:58:20.520Z,50.866741
2022-11-07T03:59:20.486Z,50.866802
2022-11-07T04:00:21.035Z,50.866779
2022-11-07T04:01:20.516Z,50.866760
2022-11-07T04:02:20.613Z,50.866749
2022-11-07T04:03:21.033Z,50.866734
2022-11-07T04:04:20.480Z,50.866734
2022-11-07T04:05:20.433Z,50.866756
2022-11-07T04:06:20.430Z,50.866791
2022-11-07T04:07:20.432Z,50.866680
2022-11-07T04:08:20.402Z,50.866707
2022-11-07T04:09:20.396Z,50.866741
2022-11-07T04:10:20.396Z,50.866695
2022-11-07T04:11:20.386Z,50.866646
2022-11-07T04:12:20.372Z,50.866699
2022-11-07T04:13:20.364Z,50.866764
2022-11-07T04:14:20.369Z,50.866688
2022-11-07T04:15:20.356Z,50.866676
2022-11-07T04:16:20.346Z,50.866776
2022-11-07T04:17:20.347Z,50.866756
2022-11-07T04:18:20.348Z,50.866753
2022-11-07T04:19:20.324Z,50.866711
2022-11-07T04:20:20.322Z,50.866699
2022-11-07T04:21:20.368Z,50.866711
2022-11-07T04:22:20.302Z,50.866711
2022-11-07T04:23:20.288Z,50.866695
2022-11-07T04:24:20.286Z,50.866692
2022-11-07T04:25:20.267Z,50.866714
2022-11-07T04:26:20.266Z,50.866711
2022-11-07T04:27:20.266Z,50.866741
2022-11-07T04:28:20.296Z,50.866753
2022-11-07T04:29:52.995Z,50.866684
2022-11-07T04:30:20.329Z,50.866756
2022-11-07T04:31:20.227Z,50.866699
2022-11-07T04:32:20.214Z,50.866653
2022-11-07T04:33:54.140Z,50.866692
2022-11-07T04:34:20.196Z,50.866650
2022-11-07T04:35:20.223Z,50.866718
2022-11-07T04:36:20.203Z,50.866444
2022-11-07T04:37:20.183Z,50.866371
2022-11-07T04:38:20.260Z,50.866379
2022-11-07T04:39:20.166Z,50.866760
2022-11-07T04:40:20.345Z,50.866463
2022-11-07T04:41:20.182Z,50.866470
2022-11-07T04:42:20.134Z,50.866558
2022-11-07T04:43:20.132Z,50.866508
2022-11-07T04:44:20.144Z,50.866329
2022-11-07T04:45:20.115Z,50.866428
2022-11-07T04:46:20.116Z,50.866573
2022-11-07T04:47:20.102Z,50.866417
2022-11-07T04:48:20.095Z,50.866367
2022-11-07T04:49:20.096Z,50.866344
2022-11-07T04:50:20.083Z,50.866501
2022-11-07T04:51:20.065Z,50.866570
2022-11-07T04:52:20.056Z,50.866554
2022-11-07T04:53:20.041Z,50.866566
2022-11-07T04:54:20.036Z,50.866646
2022-11-07T04:55:20.030Z,50.866573
2022-11-07T04:56:20.028Z,50.866581
2022-11-07T04:57:20.013Z,50.866600
2022-11-07T04:58:20.003Z,50.866604
2022-11-07T04:59:20.010Z,50.866665
2022-11-07T05:00:20.027Z,50.866730
2022-11-07T05:01:20.003Z,50.866650
2022-11-07T05:02:20.024Z,50.866653
2022-11-07T05:03:20.250Z,50.866695
2022-11-07T05:04:19.954Z,50.866661
2022-11-07T05:05:19.950Z,50.866669
2022-11-07T05:06:19.926Z,50.866711
2022-11-07T05:07:20.938Z,50.866535
2022-11-07T05:08:19.939Z,50.866764
2022-11-07T05:09:19.921Z,50.866692
2022-11-07T05:10:19.913Z,50.866802
2022-11-07T05:11:19.911Z,50.866776
2022-11-07T05:12:19.896Z,50.866783
2022-11-07T05:13:19.895Z,50.866714
2022-11-07T05:14:19.880Z,50.866688
2022-11-07T05:15:20.521Z,50.866604
2022-11-07T05:16:20.529Z,50.866680
2022-11-07T05:17:24.327Z,50.866718
2022-11-07T05:18:20.856Z,50.866741
2022-11-07T05:19:19.839Z,50.866779
2022-11-07T05:20:21.604Z,50.866718
2022-11-07T05:21:19.821Z,50.866684
2022-11-07T05:22:19.828Z,50.866756
2022-11-07T05:23:20.412Z,50.866711
2022-11-07T05:24:19.811Z,50.866745
2022-11-07T05:25:19.784Z,50.866756
2022-11-07T05:26:19.779Z,50.866806
2022-11-07T05:27:19.775Z,50.866768
2022-11-07T05:28:25.739Z,50.866783
2022-11-07T05:29:21.775Z,50.866795
2022-11-07T05:30:19.798Z,50.866737
2022-11-07T05:31:19.731Z,50.866802
2022-11-07T05:32:19.765Z,50.866684
2022-11-07T05:33:19.718Z,50.866730
2022-11-07T05:34:20.119Z,50.866589
2022-11-07T05:35:19.701Z,50.866665
2022-11-07T05:36:19.705Z,50.866657
2022-11-07T05:37:19.709Z,50.866718
2022-11-07T05:38:19.692Z,50.866737
2022-11-07T05:39:19.671Z,50.866722
2022-11-07T05:40:19.660Z,50.866825
2022-11-07T05:41:19.664Z,50.866821
2022-11-07T05:42:19.663Z,50.866791
2022-11-07T05:43:20.117Z,50.866821
2022-11-07T05:44:19.634Z,50.866753
2022-11-07T05:45:19.640Z,50.866783
2022-11-07T05:46:20.616Z,50.866718
2022-11-07T05:47:19.623Z,50.866634
2022-11-07T05:48:19.620Z,50.866684
2022-11-07T05:49:19.603Z,50.866737
2022-11-07T05:50:19.592Z,50.866749
2022-11-07T05:51:19.860Z,50.866798
2022-11-07T05:52:21.638Z,50.866604
2022-11-07T05:53:21.148Z,50.866570
2022-11-07T05:54:19.553Z,50.866661
2022-11-07T05:55:19.585Z,50.866695
2022-11-07T05:56:19.542Z,50.866699
2022-11-07T05:57:19.541Z,50.866661
2022-11-07T05:58:19.533Z,50.866688
2022-11-07T05:59:20.056Z,50.866768
2022-11-07T06:00:19.647Z,50.866829
2022-11-07T06:01:19.509Z,50.866817
2022-11-07T06:02:19.712Z,50.866837
2022-11-07T06:03:19.990Z,50.866768
2022-11-07T06:04:19.483Z,50.866798
2022-11-07T06:05:24.015Z,50.866924
2022-11-07T06:06:20.461Z,50.866848
2022-11-07T06:07:19.459Z,50.866848
2022-11-07T06:08:19.439Z,50.866783
2022-11-07T06:09:19.450Z,50.866791
2022-11-07T06:10:19.439Z,50.866829
2022-11-07T06:11:19.426Z,50.866856
2022-11-07T06:12:19.442Z,50.866810
2022-11-07T06:13:19.625Z,50.866726
2022-11-07T06:14:19.408Z,50.866749
2022-11-07T06:15:19.395Z,50.866730
2022-11-07T06:16:20.112Z,50.866760
2022-11-07T06:17:21.107Z,50.866779
2022-11-07T06:18:19.355Z,50.866970
2022-11-07T06:19:20.109Z,50.866871
2022-11-07T06:20:19.343Z,50.866791
2022-11-07T06:21:22.062Z,50.866772
2022-11-07T06:22:22.110Z,50.866707
2022-11-07T06:23:20.434Z,50.866795
2022-11-07T06:24:19.317Z,50.866825
2022-11-07T06:25:19.327Z,50.866745
2022-11-07T06:26:19.313Z,50.866554
2022-11-07T06:27:20.048Z,50.866730
2022-11-07T06:28:19.304Z,50.866615
2022-11-07T06:29:20.119Z,50.866749
2022-11-07T06:30:19.330Z,50.866703
2022-11-07T06:31:19.267Z,50.866730
2022-11-07T06:35:27.188Z,50.867126
2022-11-07T06:36:27.193Z,50.866657
2022-11-07T06:37:27.168Z,50.866669
2022-11-07T06:38:27.168Z,50.866714
2022-11-07T06:39:27.148Z,50.866360
2022-11-07T06:40:27.158Z,50.866707
2022-11-07T06:41:27.145Z,50.866341
2022-11-07T06:42:27.959Z,50.866344
2022-11-07T06:43:27.124Z,50.866600
2022-11-07T06:51:36.460Z,50.866653
2022-11-07T06:52:36.441Z,50.866821
2022-11-07T06:53:36.445Z,50.866657
2022-11-07T06:54:36.420Z,50.866364
2022-11-07T06:55:36.441Z,50.866634
2022-11-07T06:56:36.408Z,50.866364
2022-11-07T06:57:37.313Z,50.866959
2022-11-07T06:58:36.422Z,50.866417
2022-11-07T06:59:37.265Z,50.866714
2022-11-07T07:00:36.585Z,50.866608
2022-11-07T07:01:36.531Z,50.866982
2022-11-07T07:02:57.549Z,50.866657
2022-11-07T07:03:38.482Z,50.866997
2022-11-07T07:04:37.357Z,50.867115
2022-11-07T07:05:39.789Z,50.866829
2022-11-07T07:06:36.322Z,50.866764
2022-11-07T07:07:36.337Z,50.866608
2022-11-07T07:08:36.311Z,50.866566
2022-11-07T07:09:36.316Z,50.866638
2022-11-07T07:10:36.295Z,50.866692
2022-11-07T07:11:40.261Z,50.866756
2022-11-07T07:12:36.267Z,50.866562
2022-11-07T07:13:36.261Z,50.866604
2022-11-07T07:14:36.254Z,50.866482
2022-11-07T07:15:49.814Z,50.866695
2022-11-07T07:16:38.228Z,50.866863
2022-11-07T07:17:36.339Z,50.866970
2022-11-07T07:18:36.229Z,50.866695
2022-11-07T07:19:36.209Z,50.866650
2022-11-07T07:20:36.237Z,50.866741
2022-11-07T07:21:36.865Z,50.866646
2022-11-07T07:22:36.199Z,50.866638
2022-11-07T07:23:36.185Z,50.866653
2022-11-07T07:24:36.198Z,50.866726
2022-11-07T07:25:36.173Z,50.866814
2022-11-07T07:26:36.158Z,50.866802
2022-11-07T07:27:36.153Z,50.866753
2022-11-07T07:28:36.148Z,50.866745
2022-11-07T07:29:36.136Z,50.866703
2022-11-07T07:30:36.125Z,50.866764
2022-11-07T07:31:36.115Z,50.866783
2022-11-07T07:32:36.106Z,50.866753
2022-11-07T07:33:36.199Z,50.866764
2022-11-07T07:34:36.086Z,50.866909
2022-11-07T07:35:36.099Z,50.866905
2022-11-07T07:36:36.087Z,50.866928
2022-11-07T07:37:36.070Z,50.866848
2022-11-07T07:38:36.079Z,50.866779
2022-11-07T07:39:36.056Z,50.866825
2022-11-07T07:40:36.052Z,50.866776
2022-11-07T07:41:40.065Z,50.866714
2022-11-07T07:42:37.059Z,50.866844
2022-11-07T07:43:36.016Z,50.866848
2022-11-07T07:44:36.018Z,50.866951
2022-11-07T07:45:37.007Z,50.867062
2022-11-07T07:46:36.796Z,50.867100
2022-11-07T07:47:35.993Z,50.867123
2022-11-07T07:48:35.978Z,50.866993
2022-11-07T07:49:36.067Z,50.867023
2022-11-07T07:50:35.965Z,50.866894
2022-11-07T07:51:35.952Z,50.867153
2022-11-07T08:16:43.713Z,50.867073
2022-11-07T08:17:43.702Z,50.866619
2022-11-07T08:18:43.715Z,50.866520
2022-11-07T08:19:44.602Z,50.866535
2022-11-07T08:20:44.075Z,50.866730
2022-11-07T08:21:43.770Z,50.866756
2022-11-07T08:22:43.681Z,50.866768
2022-11-07T08:23:43.661Z,50.866707
2022-11-07T08:24:43.642Z,50.866718
2022-11-07T08:25:43.649Z,50.866657
2022-11-07T08:26:43.635Z,50.866615
2022-11-07T08:27:44.167Z,50.866585
2022-11-07T08:28:43.612Z,50.866596
2022-11-07T08:29:43.603Z,50.866562
2022-11-07T08:30:43.596Z,50.866657
2022-11-07T08:31:43.601Z,50.866516
2022-11-07T08:32:43.597Z,50.866497
2022-11-07T08:33:45.291Z,50.866550
2022-11-07T08:34:45.189Z,50.866611
2022-11-07T08:35:43.560Z,50.866611
2022-11-07T08:36:43.553Z,50.866611
2022-11-07T08:37:44.264Z,50.866524
2022-11-07T08:38:43.529Z,50.866524
2022-11-07T08:39:43.528Z,50.866524
2022-11-07T08:40:43.519Z,50.866524
2022-11-07T08:41:43.523Z,50.866539
2022-11-07T08:42:43.518Z,50.866718
2022-11-07T08:43:43.491Z,50.866604
2022-11-07T08:44:43.481Z,50.866615
2022-11-07T08:45:43.479Z,50.866673
2022-11-07T08:46:43.478Z,50.866627
2022-11-07T08:47:44.172Z,50.866589
2022-11-07T08:48:43.458Z,50.866714
2022-11-07T08:49:43.466Z,50.866756
2022-11-07T08:50:43.442Z,50.866726
2022-11-07T08:51:43.424Z,50.866711
2022-11-07T08:52:43.433Z,50.866737
2022-11-07T08:53:43.408Z,50.866730
2022-11-07T08:54:43.427Z,50.866718
2022-11-07T08:55:43.397Z,50.866791
2022-11-07T08:56:43.380Z,50.866707
2022-11-07T08:57:43.384Z,50.866791
2022-11-07T08:58:43.365Z,50.866772
2022-11-07T08:59:43.364Z,50.866737
2022-11-07T09:00:43.397Z,50.866787
2022-11-07T09:02:14.346Z,50.866722
2022-11-07T09:03:23.859Z,50.866772
2022-11-07T09:03:50.259Z,50.866718
2022-11-07T09:04:45.379Z,50.866760
2022-11-07T09:05:44.185Z,50.866764
2022-11-07T09:06:43.301Z,50.866745
2022-11-07T09:07:43.294Z,50.866791
2022-11-07T09:08:43.300Z,50.866756
2022-11-07T09:09:43.280Z,50.866764
2022-11-07T09:10:43.691Z,50.866764
2022-11-07T09:11:43.259Z,50.866791
2022-11-07T09:12:43.256Z,50.866863
2022-11-07T09:13:43.258Z,50.866859
2022-11-07T09:14:43.238Z,50.866810
2022-11-07T09:15:49.396Z,50.866844
2022-11-07T09:16:45.217Z,50.866997
2022-11-07T09:17:43.211Z,50.866932
2022-11-07T09:18:43.212Z,50.866920
2022-11-07T09:19:43.210Z,50.866867
2022-11-07T09:20:43.194Z,50.866810
2022-11-07T09:21:43.185Z,50.866756
2022-11-07T09:22:43.198Z,50.866684
2022-11-07T09:23:43.174Z,50.866692
2022-11-07T09:24:43.178Z,50.866611
2022-11-07T09:25:43.154Z,50.866707
2022-11-07T09:26:43.155Z,50.866714
2022-11-07T09:27:43.136Z,50.866699
2022-11-07T09:28:47.048Z,50.866638
2022-11-07T09:29:45.123Z,50.866653
2022-11-07T09:30:43.130Z,50.866657
2022-11-07T09:31:43.679Z,50.866688
2022-11-07T09:32:45.586Z,50.866695
2022-11-07T09:33:44.089Z,50.866707
2022-11-07T09:34:43.086Z,50.866688
2022-11-07T09:35:43.081Z,50.866673
2022-11-07T09:36:43.064Z,50.866707
2022-11-07T09:37:43.068Z,50.866676
2022-11-07T09:38:43.053Z,50.866676
2022-11-07T09:39:43.056Z,50.866638
2022-11-07T09:40:43.290Z,50.866619
2022-11-07T09:41:43.021Z,50.866615
2022-11-07T09:42:43.022Z,50.866627
2022-11-07T09:43:43.018Z,50.866817
2022-11-07T09:44:43.005Z,50.866791
2022-11-07T09:45:43.006Z,50.866749
2022-11-07T09:46:42.998Z,50.866730
2022-11-07T09:47:42.987Z,50.866753
2022-11-07T09:48:42.979Z,50.866726
2022-11-07T09:49:43.688Z,50.866776
2022-11-07T09:50:43.687Z,50.866711
2022-11-07T09:51:42.953Z,50.866707
2022-11-07T09:52:43.771Z,50.866737
2022-11-07T09:53:44.760Z,50.866768
2022-11-07T09:54:42.931Z,50.866730
2022-11-07T09:55:42.917Z,50.866756
2022-11-07T09:56:42.910Z,50.866745
2022-11-07T09:57:42.899Z,50.866737
2022-11-07T09:58:42.927Z,50.866699
2022-11-07T09:59:42.882Z,50.866741
2022-11-07T10:00:42.942Z,50.866798
2022-11-07T10:01:43.012Z,50.866776
2022-11-07T10:02:42.871Z,50.866814
2022-11-07T10:03:52.951Z,50.866802
2022-11-07T10:04:44.844Z,50.866802
2022-11-07T10:05:42.832Z,50.866756
2022-11-07T10:06:42.834Z,50.866756
2022-11-07T10:07:42.819Z,50.866722
2022-11-07T10:08:44.779Z,50.866833
2022-11-07T10:09:42.836Z,50.866779
2022-11-07T10:10:42.794Z,50.866764
2022-11-07T10:11:42.803Z,50.866821
2022-11-07T10:12:44.842Z,50.866791
2022-11-07T10:13:43.777Z,50.866791
2022-11-07T10:14:42.765Z,50.866699
2022-11-07T10:15:42.764Z,50.866760
2022-11-07T10:16:42.779Z,50.866768
2022-11-07T10:17:42.746Z,50.866776
2022-11-07T10:18:42.745Z,50.866829
2022-11-07T10:19:42.738Z,50.866699
2022-11-07T10:20:42.721Z,50.866619
2022-11-07T10:21:42.712Z,50.866657
2022-11-07T10:22:42.715Z,50.866627
2022-11-07T10:23:42.687Z,50.866581
2022-11-07T10:24:42.685Z,50.866493
2022-11-07T10:25:42.675Z,50.866528
2022-11-07T10:26:42.677Z,50.866581
2022-11-07T10:27:42.663Z,50.866619
2022-11-07T10:28:42.658Z,50.866615
2022-11-07T10:29:44.740Z,50.866634
2022-11-07T10:30:43.633Z,50.866631
2022-11-07T10:31:42.633Z,50.866608
2022-11-07T10:32:42.623Z,50.866608
2022-11-07T10:33:42.620Z,50.866669
2022-11-07T10:34:42.629Z,50.866631
2022-11-07T10:35:42.595Z,50.866684
2022-11-07T10:36:42.599Z,50.866741
2022-11-07T10:37:42.587Z,50.867188
2022-11-07T10:38:42.572Z,50.867409
2022-11-07T10:39:42.580Z,50.867531
2022-11-07T10:40:44.195Z,50.867619
2022-11-07T10:41:42.558Z,50.867622
2022-11-07T10:42:42.539Z,50.867611
2022-11-07T10:43:44.225Z,50.867493
2022-11-07T10:44:43.422Z,50.867249
2022-11-07T10:45:42.521Z,50.867233
2022-11-07T10:46:42.503Z,50.867203
2022-11-07T10:47:42.496Z,50.866947
2022-11-07T10:48:42.506Z,50.866604
2022-11-07T10:49:42.508Z,50.866589
2022-11-07T10:50:42.475Z,50.866615
2022-11-07T10:51:43.286Z,50.866608
2022-11-07T10:52:42.461Z,50.866421
2022-11-07T10:53:42.470Z,50.866447
2022-11-07T10:54:42.454Z,50.866531
2022-11-07T10:55:42.434Z,50.866531
2022-11-07T10:56:42.434Z,50.866543
2022-11-07T10:57:42.420Z,50.866653
2022-11-07T10:58:42.453Z,50.866821
2022-11-07T10:59:42.414Z,50.866886
2022-11-07T11:00:42.499Z,50.866837
2022-11-07T11:01:42.475Z,50.866875
2022-11-07T11:02:42.387Z,50.866825
2022-11-07T11:03:44.866Z,50.866814
2022-11-07T11:04:48.016Z,50.866814
2022-11-07T11:05:44.373Z,50.866879
2022-11-07T11:06:42.375Z,50.866982
2022-11-07T11:07:44.309Z,50.866951
2022-11-07T11:08:42.379Z,50.866882
2022-11-07T11:09:44.219Z,50.866917
2022-11-07T11:10:42.348Z,50.866837
2022-11-07T11:11:42.329Z,50.866875
2022-11-07T11:12:42.990Z,50.866943
2022-11-07T11:13:47.308Z,50.866917
2022-11-07T11:14:52.822Z,50.866856
2022-11-07T11:15:42.814Z,50.866859
2022-11-07T11:16:42.432Z,50.866871
2022-11-07T11:17:42.269Z,50.866844
2022-11-07T11:18:42.287Z,50.866806
2022-11-07T11:19:42.259Z,50.866814
2022-11-07T11:20:42.246Z,50.866837
2022-11-07T11:21:42.248Z,50.866829
2022-11-07T11:22:43.220Z,50.866875
2022-11-07T11:23:42.235Z,50.866859
2022-11-07T11:24:42.232Z,50.866844
2022-11-07T11:25:44.745Z,50.866886
2022-11-07T11:26:42.719Z,50.866913
2022-11-07T11:27:42.194Z,50.866859
2022-11-07T11:28:42.183Z,50.866886
2022-11-07T11:29:42.801Z,50.866924
2022-11-07T11:30:42.159Z,50.866848
2022-11-07T11:31:42.148Z,50.866867
2022-11-07T11:32:43.796Z,50.866833
2022-11-07T11:33:42.154Z,50.866791
2022-11-07T11:34:42.139Z,50.866833
2022-11-07T11:35:42.528Z,50.866821
2022-11-07T11:36:43.102Z,50.866863
2022-11-07T11:37:42.099Z,50.866901
2022-11-07T11:38:43.220Z,50.866928
2022-11-07T11:39:42.078Z,50.866894
2022-11-07T11:40:42.092Z,50.866909
2022-11-07T11:41:42.061Z,50.866875
2022-11-07T11:42:42.063Z,50.866894
2022-11-07T11:43:42.055Z,50.866920
2022-11-07T11:44:42.054Z,50.866871
2022-11-07T11:45:43.824Z,50.866913
2022-11-07T11:46:43.731Z,50.866917
2022-11-07T11:47:43.824Z,50.866890
2022-11-07T11:48:42.024Z,50.866909
2022-11-07T11:49:44.826Z,50.866890
2022-11-07T11:50:43.003Z,50.866913
2022-11-07T11:51:41.992Z,50.866936
2022-11-07T11:52:41.987Z,50.866894
2022-11-07T11:53:41.979Z,50.866901
2022-11-07T11:54:41.965Z,50.866898
2022-11-07T11:55:41.964Z,50.866936
2022-11-07T11:56:41.953Z,50.866936
2022-11-07T11:57:41.939Z,50.866966
2022-11-07T11:58:41.938Z,50.866928
2022-11-07T11:59:41.947Z,50.866959
2022-11-07T12:00:41.919Z,50.866943
2022-11-07T12:01:41.907Z,50.866920
2022-11-07T12:02:41.957Z,50.866936
2022-11-07T12:03:41.913Z,50.866974
2022-11-07T12:04:42.036Z,50.866932